UNBB

Barnaul Airport

Barnaul, Russian Federation
TAF UNBB 232000Z 2321/2421 22003G08MPS 9999 BKN005 BKN010CB TEMPO 2321/2405 28003G08MPS 0500 FG SCT002 BKN005 BKN010CB TEMPO 2405/2421 16006G12MPS
Issued Valid From Valid To
Apr-23 @ 20:00 UTC
(3 hours ago)
Apr-23 @ 21:00 UTC
(2 hours ago)
Apr-24 @ 21:00 UTC
(in 22 hours)
Apr-23 @ 21:00 to Apr-24 @ 21:00
TAF UNBB 232000Z 2321/2421 22003G08MPS 9999 BKN005 BKN010CB
Wind Visibility Clouds
220° at 6 knots
 Gusting to 16 knots
10,000+ meters
  • Broken at 500' AGL
  • Broken at 1,000' AGL
Temporary Apr-23 @ 21:00 to Apr-24 @ 05:00
TEMPO 2321/2405 28003G08MPS 0500 FG SCT002 BKN005 BKN010CB
Wind Visibility Clouds Conditions
280° at 6 knots
 Gusting to 16 knots
499 meters
  • Scattered at 200' AGL
  • Broken at 500' AGL
  • Broken at 1,000' AGL
  • Fog
Temporary Apr-24 @ 05:00 to Apr-24 @ 21:00
TEMPO 2405/2421 16006G12MPS
Wind
160° at 12 knots
 Gusting to 23 knots
TAF UNBB 232000Z 2321/2421 22003G08MPS 9999 BKN005 BKN010CB TEMPO 2321/2405 28003G08MPS 0500 FG SCT002 BKN005 BKN010CB TEMPO 2405/2421 16006G12MPS
Issued Apr-23 @ 20:00 UTC
(3 hours ago)
Valid From Apr-23 @ 21:00 UTC
(2 hours ago)
Valid To Apr-24 @ 21:00 UTC
(in 22 hours)
Apr-23 @ 21:00 - Apr-24 @ 21:00
Wind Visibility
220° at 6 knots
 Gusting to 16 knots
10,000+ meters
Clouds
  • Broken at 500' AGL
  • Broken at 1,000' AGL
Temporary Apr-23 @ 21:00 - Apr-24 @ 05:00
Wind Visibility
280° at 6 knots
 Gusting to 16 knots
499 meters
Clouds
  • Scattered at 200' AGL
  • Broken at 500' AGL
  • Broken at 1,000' AGL
Conditions
  • Fog
Temporary Apr-24 @ 05:00 - Apr-24 @ 21:00
Wind
160° at 12 knots
 Gusting to 23 knots